createdAt,value
2022-09-11T00:01:48.115Z,2.30
2022-09-11T00:04:14.479Z,2.30
2022-09-11T00:06:40.933Z,2.00
2022-09-11T00:09:07.733Z,2.20
2022-09-11T00:11:36.001Z,2.10
2022-09-11T00:14:02.389Z,2.30
2022-09-11T00:16:30.426Z,2.20
2022-09-11T00:18:58.238Z,2.20
2022-09-11T00:21:25.245Z,2.20
2022-09-11T00:23:51.555Z,2.10
2022-09-11T00:26:18.133Z,2.20
2022-09-11T00:28:45.171Z,2.30
2022-09-11T00:31:16.487Z,2.20
2022-09-11T00:33:43.868Z,2.10
2022-09-11T00:36:15.698Z,2.10
2022-09-11T00:38:42.916Z,2.10
2022-09-11T00:41:13.746Z,2.20
2022-09-11T00:43:55.183Z,2.30
2022-09-11T00:46:22.531Z,2.07
2022-09-11T00:48:49.926Z,2.10
2022-09-11T00:51:25.915Z,2.10
2022-09-11T00:53:54.259Z,2.20
2022-09-11T00:56:21.550Z,2.07
2022-09-11T00:58:48.676Z,2.30
2022-09-11T01:01:14.997Z,2.20
2022-09-11T01:03:42.291Z,2.20
2022-09-11T01:06:10.561Z,2.00
2022-09-11T01:08:38.524Z,2.10
2022-09-11T01:11:13.919Z,2.10
2022-09-11T01:13:45.997Z,2.00
2022-09-11T01:16:31.035Z,2.20
2022-09-11T01:19:08.880Z,2.20
2022-09-11T01:21:35.629Z,2.10
2022-09-11T01:24:11.812Z,2.10
2022-09-11T01:26:53.432Z,2.17
2022-09-11T01:29:19.639Z,2.10
2022-09-11T01:31:55.040Z,2.20
2022-09-11T01:34:36.015Z,3.27
2022-09-11T01:37:07.615Z,2.10
2022-09-11T01:39:37.526Z,2.20
2022-09-11T01:42:05.420Z,2.50
2022-09-11T01:44:43.053Z,2.20
2022-09-11T01:47:10.699Z,2.20
2022-09-11T01:49:40.458Z,2.20
2022-09-11T01:52:09.319Z,2.10
2022-09-11T01:54:42.237Z,2.27
2022-09-11T01:57:11.563Z,2.20
2022-09-11T01:59:46.254Z,2.30
2022-09-11T02:02:13.743Z,2.20
2022-09-11T02:04:46.061Z,2.20
2022-09-11T02:07:20.409Z,2.10
2022-09-11T02:09:50.345Z,2.70
2022-09-11T02:12:17.669Z,2.20
2022-09-11T02:14:46.144Z,2.20
2022-09-11T02:17:19.712Z,2.20
2022-09-11T02:19:45.963Z,2.20
2022-09-11T02:22:12.335Z,2.10
2022-09-11T02:24:39.192Z,2.10
2022-09-11T02:27:07.227Z,2.10
2022-09-11T02:29:34.056Z,2.20
2022-09-11T02:32:00.793Z,2.20
2022-09-11T02:34:29.711Z,2.10
2022-09-11T02:37:12.231Z,2.30
2022-09-11T02:39:57.260Z,2.30
2022-09-11T02:42:44.527Z,2.40
2022-09-11T02:45:20.361Z,2.50
2022-09-11T02:47:53.181Z,2.20
2022-09-11T02:50:29.641Z,2.23
2022-09-11T02:53:05.157Z,2.20
2022-09-11T02:55:40.799Z,2.20
2022-09-11T02:58:15.629Z,2.30
2022-09-11T03:00:42.298Z,2.50
2022-09-11T03:03:08.590Z,2.20
2022-09-11T03:05:37.106Z,2.20
2022-09-11T03:08:04.383Z,2.30
2022-09-11T03:10:30.644Z,2.20
2022-09-11T03:12:59.530Z,2.40
2022-09-11T03:15:26.351Z,2.27
2022-09-11T03:17:52.670Z,2.30
2022-09-11T03:20:20.119Z,2.20
2022-09-11T03:22:46.327Z,2.30
2022-09-11T03:25:12.596Z,2.20
2022-09-11T03:27:39.460Z,2.20
2022-09-11T03:30:06.568Z,2.40
2022-09-11T03:32:32.910Z,2.20
2022-09-11T03:34:59.736Z,2.40
2022-09-11T03:37:26.989Z,3.27
2022-09-11T03:39:54.776Z,2.30
2022-09-11T03:42:21.108Z,2.33
2022-09-11T03:44:47.335Z,2.30
2022-09-11T03:47:13.836Z,2.30
2022-09-11T03:49:40.207Z,2.10
2022-09-11T03:52:06.449Z,2.20
2022-09-11T03:54:32.813Z,2.20
2022-09-11T03:56:59.117Z,2.53
2022-09-11T03:59:25.340Z,2.30
2022-09-11T04:01:52.812Z,2.40
2022-09-11T04:04:19.232Z,2.30
2022-09-11T04:06:45.508Z,2.20
2022-09-11T04:09:11.737Z,3.13
2022-09-11T04:11:39.948Z,2.73
2022-09-11T04:14:07.021Z,2.47
2022-09-11T04:16:33.769Z,2.20
2022-09-11T04:19:01.021Z,2.20
2022-09-11T04:21:27.737Z,2.20
2022-09-11T04:23:56.293Z,2.30
2022-09-11T04:26:23.912Z,2.30
2022-09-11T04:28:50.259Z,2.40
2022-09-11T04:31:17.329Z,2.30
2022-09-11T04:33:43.955Z,2.30
2022-09-11T04:36:12.918Z,2.40
2022-09-11T04:38:41.300Z,2.30
2022-09-11T04:41:08.005Z,2.30
2022-09-11T04:43:35.460Z,2.40
2022-09-11T04:46:06.133Z,2.30
2022-09-11T04:48:32.546Z,2.30
2022-09-11T04:50:59.923Z,2.30
2022-09-11T04:53:26.181Z,2.50
2022-09-11T04:55:52.473Z,2.40
2022-09-11T04:58:19.016Z,2.37
2022-09-11T05:00:45.364Z,2.20
2022-09-11T05:03:11.622Z,2.20
2022-09-11T05:05:37.877Z,2.27
2022-09-11T05:08:04.174Z,2.20
2022-09-11T05:10:30.945Z,2.30
2022-09-11T05:12:57.236Z,2.37
2022-09-11T05:15:23.529Z,2.30
2022-09-11T05:17:50.664Z,4.20
2022-09-11T05:20:18.318Z,2.40
2022-09-11T05:22:44.670Z,2.30
2022-09-11T05:25:11.528Z,2.20
2022-09-11T05:27:37.777Z,2.40
2022-09-11T05:30:04.231Z,2.30
2022-09-11T05:32:30.509Z,2.23
2022-09-11T05:34:56.797Z,2.33
2022-09-11T05:37:23.686Z,2.30
2022-09-11T05:39:50.047Z,2.37
2022-09-11T05:42:16.352Z,2.30
2022-09-11T05:44:42.591Z,2.30
2022-09-11T05:47:09.104Z,2.27
2022-09-11T05:49:35.456Z,2.23
2022-09-11T05:52:01.801Z,2.20
2022-09-11T05:54:28.176Z,2.30
2022-09-11T05:56:55.671Z,2.40
2022-09-11T05:59:21.917Z,2.40
2022-09-11T06:01:48.247Z,2.30
2022-09-11T06:04:14.597Z,2.30
2022-09-11T06:06:40.913Z,2.27
2022-09-11T06:09:07.402Z,2.20
2022-09-11T06:11:33.950Z,2.20
2022-09-11T06:14:01.072Z,2.20
2022-09-11T06:16:27.383Z,2.17
2022-09-11T06:18:54.269Z,2.40
2022-09-11T06:21:21.951Z,2.30
2022-09-11T06:23:49.117Z,2.30
2022-09-11T06:26:16.399Z,2.30
2022-09-11T06:28:42.740Z,2.20
2022-09-11T06:31:12.855Z,2.30
2022-09-11T06:33:39.710Z,2.30
2022-09-11T06:36:17.421Z,2.20
2022-09-11T06:38:47.234Z,2.30
2022-09-11T06:41:14.809Z,2.30
2022-09-11T06:43:41.556Z,2.57
2022-09-11T06:46:10.181Z,2.40
2022-09-11T06:48:36.455Z,2.30
2022-09-11T06:51:03.859Z,2.13
2022-09-11T06:53:30.150Z,2.10
2022-09-11T06:56:03.280Z,2.40
2022-09-11T06:58:29.743Z,2.27
2022-09-11T07:00:56.472Z,2.27
2022-09-11T07:03:22.807Z,2.20
2022-09-11T07:05:49.052Z,2.20
2022-09-11T07:08:15.308Z,2.33
2022-09-11T07:10:41.650Z,2.77
2022-09-11T07:13:07.936Z,2.80
2022-09-11T07:15:34.223Z,2.30
2022-09-11T07:18:02.030Z,2.20
2022-09-11T07:20:28.601Z,2.20
2022-09-11T07:22:54.859Z,2.30
2022-09-11T07:25:21.127Z,2.20
2022-09-11T07:27:47.357Z,2.20
2022-09-11T07:30:13.845Z,2.20
2022-09-11T07:32:40.123Z,2.20
2022-09-11T07:35:07.094Z,2.17
2022-09-11T07:37:33.380Z,2.30
2022-09-11T07:39:59.963Z,2.13
2022-09-11T07:42:26.775Z,2.20
2022-09-11T07:44:53.274Z,2.10
2022-09-11T07:47:19.624Z,2.10
2022-09-11T07:49:46.783Z,2.10
2022-09-11T07:52:16.735Z,2.10
2022-09-11T07:54:43.913Z,2.20
2022-09-11T07:57:11.589Z,2.10
2022-09-11T07:59:38.033Z,2.37
2022-09-11T08:02:04.398Z,2.63
2022-09-11T08:04:30.852Z,2.10
2022-09-11T08:06:57.185Z,2.10
2022-09-11T08:09:26.107Z,2.10
2022-09-11T08:11:55.803Z,2.20
2022-09-11T08:14:23.307Z,2.10
2022-09-11T08:16:49.634Z,2.17
2022-09-11T08:19:21.132Z,2.10
2022-09-11T08:21:48.071Z,2.10
2022-09-11T08:24:16.874Z,2.00
2022-09-11T08:26:48.150Z,2.10
2022-09-11T08:29:15.199Z,2.00
2022-09-11T08:31:41.734Z,2.40
2022-09-11T08:34:09.248Z,2.10
2022-09-11T08:36:35.508Z,2.00
2022-09-11T08:39:02.727Z,2.00
2022-09-11T08:41:34.976Z,2.23
2022-09-11T08:44:07.069Z,2.00
2022-09-11T08:46:38.011Z,1.90
2022-09-11T08:49:21.538Z,2.00
2022-09-11T08:51:49.832Z,2.00
2022-09-11T08:54:21.944Z,2.07
2022-09-11T08:56:49.845Z,1.90
2022-09-11T08:59:19.055Z,1.90
2022-09-11T09:01:53.104Z,2.00
2022-09-11T09:04:34.396Z,1.90
2022-09-11T09:07:23.292Z,1.90
2022-09-11T09:09:49.604Z,1.90
2022-09-11T09:12:28.217Z,2.00
2022-09-11T09:15:13.805Z,2.00
2022-09-11T09:17:45.331Z,1.93
2022-09-11T09:20:17.642Z,1.80
2022-09-11T09:22:46.986Z,1.90
2022-09-11T09:25:14.609Z,1.80
2022-09-11T09:27:48.199Z,1.80
2022-09-11T09:30:18.940Z,1.70
2022-09-11T09:33:07.577Z,1.70
2022-09-11T09:35:41.101Z,1.77
2022-09-11T09:38:21.849Z,1.70
2022-09-11T09:41:22.365Z,1.57
2022-09-11T09:43:57.592Z,1.60
2022-09-11T09:46:50.781Z,1.70
2022-09-11T09:49:19.165Z,1.60
2022-09-11T09:51:45.404Z,1.60
2022-09-11T09:54:16.000Z,1.60
2022-09-11T09:56:46.871Z,1.60
2022-09-11T09:59:21.343Z,1.53
2022-09-11T10:01:51.953Z,1.40
2022-09-11T10:04:22.685Z,1.50
2022-09-11T10:06:50.711Z,1.50
2022-09-11T10:09:21.494Z,1.50
2022-09-11T10:11:51.661Z,1.70
2022-09-11T10:14:49.350Z,1.50
2022-09-11T10:17:18.840Z,1.50
2022-09-11T10:19:45.084Z,1.50
2022-09-11T10:22:26.391Z,1.50
2022-09-11T10:25:00.180Z,1.40
2022-09-11T10:27:28.997Z,1.50
2022-09-11T10:29:55.680Z,1.40
2022-09-11T10:32:24.542Z,1.40
2022-09-11T10:34:51.305Z,1.40
2022-09-11T10:37:25.738Z,1.30
2022-09-11T10:39:52.720Z,2.27
2022-09-11T10:42:22.241Z,1.50
2022-09-11T10:44:49.942Z,1.40
2022-09-11T10:47:24.970Z,1.40
2022-09-11T10:50:10.547Z,1.40
2022-09-11T10:52:47.022Z,1.40
2022-09-11T10:55:15.757Z,1.40
2022-09-11T10:57:42.102Z,2.23
2022-09-11T11:00:24.688Z,1.40
2022-09-11T11:02:52.876Z,1.30
2022-09-11T11:05:21.367Z,1.30
2022-09-11T11:07:47.602Z,1.40
2022-09-11T11:10:19.728Z,1.30
2022-09-11T11:12:50.008Z,1.70
2022-09-11T11:15:25.882Z,1.30
2022-09-11T11:18:13.964Z,1.30
2022-09-11T11:20:57.034Z,1.30
2022-09-11T11:23:43.264Z,1.40
2022-09-11T11:26:29.770Z,1.30
2022-09-11T11:28:55.995Z,1.20
2022-09-11T11:31:22.748Z,1.20
2022-09-11T11:34:14.286Z,1.20
2022-09-11T11:36:52.166Z,1.10
2022-09-11T11:39:26.636Z,1.10
2022-09-11T11:42:11.058Z,0.90
2022-09-11T11:44:41.893Z,0.90
2022-09-11T11:47:10.747Z,0.97
2022-09-11T11:49:42.934Z,0.73
2022-09-11T11:52:23.247Z,0.60
2022-09-11T11:54:53.977Z,0.60
2022-09-11T11:57:22.186Z,0.60
2022-09-11T11:59:54.854Z,0.50
2022-09-11T12:02:24.665Z,1.03
2022-09-11T12:04:53.987Z,0.50
2022-09-11T12:07:22.218Z,0.50
2022-09-11T12:09:49.495Z,0.40
2022-09-11T12:12:17.079Z,0.47
2022-09-11T12:14:51.339Z,0.40
2022-09-11T12:17:18.898Z,0.40
2022-09-11T12:20:05.108Z,0.40
2022-09-11T12:22:38.509Z,0.77
2022-09-11T12:25:24.737Z,0.40
2022-09-11T12:28:10.279Z,0.40
2022-09-11T12:30:56.180Z,0.30
2022-09-11T12:33:40.612Z,0.30
2022-09-11T12:36:08.534Z,0.30
2022-09-11T12:38:44.845Z,0.20
2022-09-11T12:41:16.133Z,0.30
2022-09-11T12:43:42.624Z,0.23
2022-09-11T12:46:10.969Z,0.20
2022-09-11T12:48:49.815Z,0.20
2022-09-11T12:51:29.516Z,0.20
2022-09-11T12:54:00.143Z,0.20
2022-09-11T12:56:28.220Z,0.20
2022-09-11T12:58:59.679Z,0.20
2022-09-11T13:01:30.658Z,0.20
2022-09-11T13:04:03.268Z,0.20
2022-09-11T13:06:40.754Z,0.10
2022-09-11T13:09:15.318Z,0.10
2022-09-11T13:11:42.906Z,0.17
2022-09-11T13:14:27.955Z,0.10
2022-09-11T13:16:58.829Z,0.10
2022-09-11T13:19:37.520Z,0.10
2022-09-11T13:22:20.204Z,0.10
2022-09-11T13:24:46.862Z,0.10
2022-09-11T13:27:17.041Z,0.10
2022-09-11T13:29:43.717Z,0.10
2022-09-11T13:32:13.291Z,0.20
2022-09-11T13:34:43.067Z,0.20
2022-09-11T13:37:10.889Z,0.17
2022-09-11T13:39:40.933Z,0.20
2022-09-11T13:42:10.039Z,0.37
2022-09-11T13:45:06.715Z,0.20
2022-09-11T13:47:33.138Z,0.20
2022-09-11T13:50:02.346Z,0.20
2022-09-11T13:52:30.756Z,0.30
2022-09-11T13:54:58.626Z,0.60
2022-09-11T13:57:26.492Z,0.30
2022-09-11T14:00:02.178Z,0.40
2022-09-11T14:02:44.306Z,0.40
2022-09-11T14:05:14.645Z,0.40
2022-09-11T14:08:10.253Z,0.40
2022-09-11T14:10:42.810Z,0.40
2022-09-11T14:13:18.496Z,0.30
2022-09-11T14:15:49.817Z,0.40
2022-09-11T14:18:21.100Z,0.30
2022-09-11T14:20:47.523Z,0.43
2022-09-11T14:23:16.697Z,0.30
2022-09-11T14:26:02.355Z,0.30
2022-09-11T14:28:35.221Z,0.30
2022-09-11T14:31:06.682Z,0.20
2022-09-11T14:33:32.992Z,0.30
2022-09-11T14:36:13.688Z,0.30
2022-09-11T14:38:40.621Z,0.30
2022-09-11T14:41:07.251Z,0.30
2022-09-11T14:43:34.947Z,0.20
2022-09-11T14:46:02.751Z,0.20
2022-09-11T14:48:30.704Z,0.20
2022-09-11T14:50:57.276Z,0.20
2022-09-11T14:53:33.703Z,0.20
2022-09-11T14:56:00.577Z,0.30
2022-09-11T14:58:27.549Z,0.17
2022-09-11T15:00:54.242Z,0.20
2022-09-11T15:03:21.038Z,0.10
2022-09-11T15:05:50.346Z,0.20
2022-09-11T15:08:16.585Z,0.20
2022-09-11T15:10:45.111Z,0.20
2022-09-11T15:13:11.345Z,0.20
2022-09-11T15:15:37.612Z,0.20
2022-09-11T15:18:04.194Z,0.13
2022-09-11T15:20:30.550Z,0.20
2022-09-11T15:22:56.825Z,0.20
2022-09-11T15:25:23.430Z,0.20
2022-09-11T15:27:51.728Z,0.10
2022-09-11T15:30:18.960Z,0.20
2022-09-11T15:32:45.314Z,0.10
2022-09-11T15:35:12.625Z,0.20
2022-09-11T15:37:40.042Z,0.20
2022-09-11T15:40:06.759Z,0.10
2022-09-11T15:42:38.869Z,0.10
2022-09-11T15:45:07.760Z,0.20
2022-09-11T15:47:33.999Z,0.20
2022-09-11T15:50:00.850Z,0.20
2022-09-11T15:52:27.219Z,0.20
2022-09-11T15:54:53.464Z,0.20
2022-09-11T15:57:19.942Z,0.20
2022-09-11T15:59:46.224Z,0.23
2022-09-11T16:02:12.575Z,0.93
2022-09-11T16:04:38.913Z,0.20
2022-09-11T16:07:05.390Z,0.30
2022-09-11T16:09:32.051Z,0.30
2022-09-11T16:12:00.139Z,0.30
2022-09-11T16:14:28.080Z,0.30
2022-09-11T16:16:56.176Z,0.30
2022-09-11T16:19:23.684Z,0.30
2022-09-11T16:21:50.107Z,0.30
2022-09-11T16:24:16.515Z,0.27
2022-09-11T16:26:43.232Z,0.20
2022-09-11T16:29:12.547Z,0.30
2022-09-11T16:31:39.448Z,0.27
2022-09-11T16:34:06.221Z,0.30
2022-09-11T16:36:38.436Z,0.30
2022-09-11T16:39:05.867Z,0.30
2022-09-11T16:41:32.312Z,0.30
2022-09-11T16:43:58.549Z,0.30
2022-09-11T16:46:25.676Z,0.30
2022-09-11T16:48:55.011Z,0.30
2022-09-11T16:51:23.361Z,0.30
2022-09-11T16:53:50.189Z,0.30
2022-09-11T16:56:17.807Z,0.30
2022-09-11T16:58:44.452Z,0.40
2022-09-11T17:01:14.598Z,0.40
2022-09-11T17:03:42.270Z,0.40
2022-09-11T17:06:08.663Z,0.30
2022-09-11T17:08:35.372Z,0.40
2022-09-11T17:11:05.210Z,0.40
2022-09-11T17:13:31.710Z,0.40
2022-09-11T17:16:02.024Z,0.40
2022-09-11T17:18:29.023Z,0.50
2022-09-11T17:20:56.893Z,0.50
2022-09-11T17:23:23.272Z,0.50
2022-09-11T17:25:50.953Z,0.50
2022-09-11T17:28:19.829Z,0.50
2022-09-11T17:30:46.404Z,0.70
2022-09-11T17:33:14.536Z,0.50
2022-09-11T17:35:41.907Z,0.70
2022-09-11T17:38:09.323Z,0.70
2022-09-11T17:40:35.961Z,0.70
2022-09-11T17:43:02.847Z,0.80
2022-09-11T17:45:30.714Z,0.80
2022-09-11T17:47:57.111Z,0.80
2022-09-11T17:50:24.098Z,0.80
2022-09-11T17:52:50.839Z,0.83
2022-09-11T17:55:17.309Z,0.80
2022-09-11T17:57:45.467Z,0.83
2022-09-11T18:00:13.230Z,0.80
2022-09-11T18:02:40.241Z,0.80
2022-09-11T18:05:07.253Z,0.90
2022-09-11T18:07:33.879Z,0.90
2022-09-11T18:10:00.329Z,0.90
2022-09-11T18:12:28.254Z,0.90
2022-09-11T18:14:57.005Z,0.90
2022-09-11T18:17:23.267Z,1.00
2022-09-11T18:19:50.047Z,1.00
2022-09-11T18:22:19.883Z,1.00
2022-09-11T18:24:46.312Z,1.00
2022-09-11T18:27:12.696Z,1.00
2022-09-11T18:29:40.586Z,1.10
2022-09-11T18:32:06.976Z,1.03
2022-09-11T18:34:33.242Z,1.00
2022-09-11T18:37:00.109Z,1.10
2022-09-11T18:39:26.713Z,1.10
2022-09-11T18:41:52.929Z,1.10
2022-09-11T18:44:20.456Z,1.10
2022-09-11T18:46:46.995Z,1.17
2022-09-11T18:49:14.094Z,1.10
2022-09-11T18:51:42.060Z,1.10
2022-09-11T18:54:13.141Z,1.10
2022-09-11T18:56:40.435Z,1.20
2022-09-11T18:59:07.148Z,1.10
2022-09-11T19:01:34.438Z,1.20
2022-09-11T19:04:05.365Z,1.20
2022-09-11T19:06:32.140Z,1.20
2022-09-11T19:09:00.216Z,1.20
2022-09-11T19:11:28.167Z,1.20
2022-09-11T19:13:56.750Z,1.30
2022-09-11T19:16:23.166Z,1.20
2022-09-11T19:18:49.442Z,1.20
2022-09-11T19:21:16.940Z,1.30
2022-09-11T19:23:45.075Z,1.30
2022-09-11T19:26:24.272Z,1.30
2022-09-11T19:28:51.066Z,1.30
2022-09-11T19:31:20.885Z,1.20
2022-09-11T19:33:47.170Z,1.30
2022-09-11T19:36:16.750Z,1.40
2022-09-11T19:38:44.065Z,1.40
2022-09-11T19:41:12.937Z,1.33
2022-09-11T19:43:40.975Z,1.30
2022-09-11T19:46:13.216Z,1.30
2022-09-11T19:48:40.429Z,1.40
2022-09-11T19:51:11.430Z,1.40
2022-09-11T19:53:39.212Z,1.50
2022-09-11T19:56:06.045Z,1.40
2022-09-11T19:58:33.745Z,1.40
2022-09-11T20:01:03.878Z,1.50
2022-09-11T20:03:31.601Z,1.40
2022-09-11T20:05:57.918Z,1.40
2022-09-11T20:08:24.547Z,1.50
2022-09-11T20:10:50.887Z,1.40
2022-09-11T20:13:20.293Z,1.50
2022-09-11T20:15:46.542Z,1.40
2022-09-11T20:18:14.644Z,1.50
2022-09-11T20:20:45.347Z,1.50
2022-09-11T20:23:12.117Z,1.50
2022-09-11T20:25:38.428Z,1.50
2022-09-11T20:28:04.728Z,1.50
2022-09-11T20:30:32.511Z,1.50
2022-09-11T20:33:00.496Z,1.50
2022-09-11T20:35:26.881Z,1.60
2022-09-11T20:37:53.257Z,1.50
2022-09-11T20:40:19.633Z,1.60
2022-09-11T20:42:45.935Z,1.60
2022-09-11T20:45:12.218Z,1.60
2022-09-11T20:47:38.488Z,1.60
2022-09-11T20:50:05.020Z,1.60
2022-09-11T20:52:33.240Z,1.60
2022-09-11T20:55:01.249Z,1.60
2022-09-11T20:57:29.530Z,1.60
2022-09-11T20:59:55.771Z,1.60
2022-09-11T21:02:22.066Z,1.60
2022-09-11T21:04:48.946Z,1.60
2022-09-11T21:07:15.678Z,1.70
2022-09-11T21:09:44.249Z,1.60
2022-09-11T21:12:10.504Z,1.60
2022-09-11T21:14:36.794Z,1.60
2022-09-11T21:17:03.249Z,1.70
2022-09-11T21:19:29.525Z,1.70
2022-09-11T21:21:56.264Z,1.60
2022-09-11T21:24:22.513Z,1.70
2022-09-11T21:26:48.774Z,1.60
2022-09-11T21:29:15.303Z,1.70
2022-09-11T21:31:41.587Z,1.70
2022-09-11T21:34:07.881Z,1.80
2022-09-11T21:36:34.133Z,1.70
2022-09-11T21:39:00.383Z,1.73
2022-09-11T21:41:26.609Z,1.77
2022-09-11T21:43:54.146Z,1.70
2022-09-11T21:46:20.444Z,1.80
2022-09-11T21:48:46.705Z,1.80
2022-09-11T21:51:14.247Z,1.77
2022-09-11T21:53:42.654Z,1.80
2022-09-11T21:56:19.829Z,1.70
2022-09-11T21:58:46.829Z,1.80
2022-09-11T22:01:13.668Z,1.80
2022-09-11T22:03:39.997Z,1.80
2022-09-11T22:06:07.094Z,1.80
2022-09-11T22:08:33.566Z,1.80
2022-09-11T22:11:01.199Z,1.80
2022-09-11T22:13:27.439Z,1.90
2022-09-11T22:15:53.765Z,1.90
2022-09-11T22:18:20.063Z,1.90
2022-09-11T22:20:46.368Z,1.90
2022-09-11T22:23:17.208Z,2.00
2022-09-11T22:25:44.545Z,1.97
2022-09-11T22:28:10.793Z,2.00
2022-09-11T22:30:40.327Z,1.90
2022-09-11T22:33:06.624Z,1.90
2022-09-11T22:35:35.926Z,1.90
2022-09-11T22:38:02.321Z,2.00
2022-09-11T22:40:28.708Z,1.90
2022-09-11T22:42:54.961Z,2.00
2022-09-11T22:45:21.391Z,2.00
2022-09-11T22:47:47.667Z,2.03
2022-09-11T22:50:14.011Z,2.00
2022-09-11T22:52:40.713Z,2.03
2022-09-11T22:55:08.520Z,1.90
2022-09-11T22:57:35.304Z,2.00
2022-09-11T23:00:02.141Z,2.00
2022-09-11T23:02:28.652Z,2.00
2022-09-11T23:05:13.465Z,2.00
2022-09-11T23:07:39.911Z,2.00
2022-09-11T23:10:06.471Z,2.00
2022-09-11T23:12:32.713Z,2.07
2022-09-11T23:14:58.927Z,2.10
2022-09-11T23:17:25.509Z,2.00
2022-09-11T23:19:51.752Z,2.10
2022-09-11T23:22:17.991Z,2.03
2022-09-11T23:24:44.280Z,2.10
2022-09-11T23:27:10.569Z,2.10
2022-09-11T23:29:36.886Z,2.00
2022-09-11T23:32:03.347Z,2.00
2022-09-11T23:34:29.957Z,2.10
2022-09-11T23:36:56.758Z,2.10
2022-09-11T23:39:23.093Z,2.00
2022-09-11T23:41:49.439Z,2.20
2022-09-11T23:44:15.813Z,2.00
2022-09-11T23:46:42.196Z,2.10
2022-09-11T23:49:10.106Z,2.20
2022-09-11T23:51:36.583Z,2.10
2022-09-11T23:54:02.914Z,2.10
2022-09-11T23:56:29.160Z,2.20
2022-09-11T23:58:56.065Z,2.20
